createdAt,value
2022-08-13T00:01:32.330Z,20.70
2022-08-13T00:04:03.409Z,20.70
2022-08-13T00:06:54.520Z,20.60
2022-08-13T00:09:39.250Z,20.50
2022-08-13T00:12:32.798Z,20.50
2022-08-13T00:15:02.237Z,20.50
2022-08-13T00:17:50.114Z,20.40
2022-08-13T00:20:25.797Z,20.40
2022-08-13T00:23:01.067Z,20.30
2022-08-13T00:25:42.833Z,20.20
2022-08-13T00:28:19.156Z,20.20
2022-08-13T00:30:49.044Z,20.10
2022-08-13T00:33:44.182Z,20.00
2022-08-13T00:36:10.256Z,20.00
2022-08-13T00:38:40.142Z,19.90
2022-08-13T00:41:58.796Z,19.70
2022-08-13T00:44:19.490Z,19.70
2022-08-13T00:46:48.317Z,19.60
2022-08-13T00:49:16.126Z,19.50
2022-08-13T00:51:58.267Z,19.40
2022-08-13T00:54:28.002Z,19.50
2022-08-13T00:57:07.434Z,19.50
2022-08-13T00:59:43.929Z,19.40
2022-08-13T01:02:14.461Z,19.40
2022-08-13T01:04:47.382Z,19.30
2022-08-13T01:07:47.752Z,19.30
2022-08-13T01:10:16.025Z,19.20
2022-08-13T01:12:55.863Z,19.20
2022-08-13T01:15:52.810Z,19.20
2022-08-13T01:18:18.226Z,19.20
2022-08-13T01:20:48.555Z,19.20
2022-08-13T01:23:19.527Z,19.10
2022-08-13T01:26:09.301Z,19.10
2022-08-13T01:28:42.526Z,19.10
2022-08-13T01:31:17.486Z,19.10
2022-08-13T01:33:53.126Z,19.00
2022-08-13T01:36:44.168Z,19.00
2022-08-13T01:39:18.170Z,19.00
2022-08-13T01:41:54.550Z,18.80
2022-08-13T01:44:25.932Z,18.80
2022-08-13T01:47:12.471Z,18.70
2022-08-13T01:50:07.291Z,18.70
2022-08-13T01:52:40.777Z,18.70
2022-08-13T01:55:13.695Z,18.60
2022-08-13T01:57:51.405Z,18.60
2022-08-13T02:00:27.457Z,18.60
2022-08-13T02:02:56.655Z,18.50
2022-08-13T02:06:22.530Z,18.40
2022-08-13T02:08:19.680Z,18.40
2022-08-13T02:10:54.191Z,18.40
2022-08-13T02:13:35.274Z,18.40
2022-08-13T02:16:03.776Z,18.30
2022-08-13T02:18:33.640Z,18.40
2022-08-13T02:21:17.858Z,18.40
2022-08-13T02:24:00.784Z,18.30
2022-08-13T02:26:33.516Z,18.30
2022-08-13T02:29:04.312Z,18.20
2022-08-13T02:32:15.552Z,18.20
2022-08-13T02:34:26.240Z,18.10
2022-08-13T02:37:32.901Z,18.20
2022-08-13T02:39:49.242Z,18.30
2022-08-13T02:42:20.812Z,18.30
2022-08-13T02:44:51.252Z,18.20
2022-08-13T02:47:33.066Z,18.10
2022-08-13T02:50:11.035Z,18.10
2022-08-13T02:52:50.391Z,18.10
2022-08-13T02:55:33.934Z,18.10
2022-08-13T02:58:06.120Z,18.10
2022-08-13T03:00:34.913Z,18.10
2022-08-13T03:03:04.899Z,18.10
2022-08-13T03:05:51.515Z,18.10
2022-08-13T03:08:39.925Z,18.10
2022-08-13T03:11:14.044Z,18.10
2022-08-13T03:13:51.430Z,18.00
2022-08-13T03:16:24.007Z,18.00
2022-08-13T03:18:54.274Z,18.00
2022-08-13T03:21:41.250Z,18.00
2022-08-13T03:24:22.546Z,17.90
2022-08-13T03:27:00.128Z,17.90
2022-08-13T03:30:03.135Z,17.90
2022-08-13T03:32:30.605Z,17.80
2022-08-13T03:35:09.906Z,17.80
2022-08-13T03:37:39.657Z,17.70
2022-08-13T03:40:15.218Z,17.80
2022-08-13T03:42:53.379Z,17.70
2022-08-13T03:45:26.271Z,17.70
2022-08-13T03:47:57.093Z,17.70
2022-08-13T03:50:25.313Z,17.70
2022-08-13T03:52:55.479Z,17.70
2022-08-13T03:55:24.458Z,17.70
2022-08-13T03:58:02.734Z,17.60
2022-08-13T04:00:35.357Z,17.60
2022-08-13T04:03:14.161Z,17.60
2022-08-13T04:05:56.240Z,17.60
2022-08-13T04:08:28.202Z,17.60
2022-08-13T04:10:57.714Z,17.60
2022-08-13T04:14:07.222Z,17.50
2022-08-13T04:16:21.819Z,17.50
2022-08-13T04:18:59.717Z,17.40
2022-08-13T04:21:33.256Z,17.30
2022-08-13T04:24:03.458Z,17.30
2022-08-13T04:26:33.097Z,17.20
2022-08-13T04:29:05.845Z,17.10
2022-08-13T04:31:47.931Z,17.10
2022-08-13T04:34:32.506Z,17.20
2022-08-13T04:37:09.740Z,17.20
2022-08-13T04:40:08.013Z,17.30
2022-08-13T04:42:34.116Z,17.20
2022-08-13T04:45:12.045Z,17.20
2022-08-13T04:47:43.006Z,17.30
2022-08-13T04:50:12.870Z,17.30
2022-08-13T04:52:49.357Z,17.20
2022-08-13T04:55:19.749Z,17.30
2022-08-13T04:57:55.503Z,17.30
2022-08-13T05:00:26.581Z,17.40
2022-08-13T05:02:57.599Z,17.40
2022-08-13T05:05:27.046Z,17.50
2022-08-13T05:07:56.949Z,17.50
2022-08-13T05:10:30.311Z,17.50
2022-08-13T05:13:03.479Z,17.50
2022-08-13T05:15:42.035Z,17.50
2022-08-13T05:18:27.710Z,17.60
2022-08-13T05:20:58.848Z,17.70
2022-08-13T05:26:09.614Z,17.80
2022-08-13T05:26:35.684Z,17.80
2022-08-13T05:31:55.317Z,18.00
2022-08-13T05:34:27.452Z,18.10
2022-08-13T05:38:08.362Z,18.20
2022-08-13T05:39:48.369Z,18.30
2022-08-13T05:42:26.604Z,18.40
2022-08-13T05:44:56.984Z,18.50
2022-08-13T05:47:25.798Z,18.50
2022-08-13T05:49:57.841Z,18.50
2022-08-13T05:52:35.873Z,18.60
2022-08-13T05:56:10.782Z,18.80
2022-08-13T05:58:00.784Z,18.90
2022-08-13T06:00:46.898Z,19.00
2022-08-13T06:04:15.697Z,19.10
2022-08-13T06:06:24.243Z,19.20
2022-08-13T06:08:59.211Z,19.30
2022-08-13T06:12:25.940Z,19.40
2022-08-13T06:14:22.463Z,19.50
2022-08-13T06:16:55.579Z,19.70
2022-08-13T06:19:26.776Z,19.80
2022-08-13T06:22:01.920Z,19.90
2022-08-13T06:24:31.359Z,20.00
2022-08-13T06:27:13.797Z,20.10
2022-08-13T06:29:50.275Z,20.20
2022-08-13T06:32:35.470Z,20.30
2022-08-13T06:35:10.675Z,20.40
2022-08-13T06:37:50.761Z,20.50
2022-08-13T06:40:31.184Z,20.60
2022-08-13T06:43:06.789Z,20.80
2022-08-13T06:45:37.531Z,21.00
2022-08-13T06:48:17.003Z,21.20
2022-08-13T06:50:46.754Z,21.30
2022-08-13T06:54:10.611Z,21.50
2022-08-13T06:56:36.032Z,21.60
2022-08-13T06:58:59.340Z,21.70
2022-08-13T07:01:35.779Z,21.80
2022-08-13T07:04:29.376Z,21.90
2022-08-13T07:06:59.176Z,22.00
2022-08-13T07:09:31.249Z,22.10
2022-08-13T07:12:10.469Z,22.20
2022-08-13T07:14:38.489Z,22.30
2022-08-13T07:17:07.619Z,22.40
2022-08-13T07:20:02.323Z,22.50
2022-08-13T07:24:40.757Z,22.60
2022-08-13T07:25:20.090Z,22.80
2022-08-13T07:27:54.172Z,22.90
2022-08-13T07:30:25.533Z,23.00
2022-08-13T07:32:55.930Z,23.10
2022-08-13T07:35:25.150Z,23.30
2022-08-13T07:37:54.257Z,23.50
2022-08-13T07:40:30.874Z,23.60
2022-08-13T07:43:04.314Z,23.70
2022-08-13T07:46:27.072Z,23.90
2022-08-13T07:48:37.828Z,24.00
2022-08-13T07:51:20.594Z,24.10
2022-08-13T07:53:55.347Z,24.20
2022-08-13T07:56:29.547Z,24.30
2022-08-13T07:59:04.942Z,24.40
2022-08-13T08:02:20.584Z,24.50
2022-08-13T08:04:30.377Z,24.60
2022-08-13T08:07:02.765Z,24.70
2022-08-13T08:09:38.125Z,24.90
2022-08-13T08:12:29.370Z,25.00
2022-08-13T08:14:59.899Z,25.10
2022-08-13T08:18:14.483Z,25.20
2022-08-13T08:20:37.222Z,25.30
2022-08-13T08:23:06.683Z,25.30
2022-08-13T08:25:42.247Z,25.50
2022-08-13T08:28:35.587Z,25.60
2022-08-13T08:31:21.237Z,25.70
2022-08-13T08:33:58.809Z,25.80
2022-08-13T08:36:34.682Z,25.80
2022-08-13T08:39:23.317Z,25.90
2022-08-13T08:42:14.767Z,25.90
2022-08-13T08:44:46.063Z,26.10
2022-08-13T08:47:14.480Z,26.20
2022-08-13T08:49:45.152Z,26.30
2022-08-13T08:52:16.148Z,26.40
2022-08-13T08:54:47.376Z,26.30
2022-08-13T08:57:19.096Z,26.50
2022-08-13T08:59:52.228Z,26.60
2022-08-13T09:02:26.965Z,26.70
2022-08-13T09:05:00.197Z,26.70
2022-08-13T09:07:37.768Z,26.80
2022-08-13T09:10:08.045Z,26.80
2022-08-13T09:12:41.748Z,26.90
2022-08-13T09:15:14.315Z,27.00
2022-08-13T09:17:42.864Z,27.10
2022-08-13T09:20:16.886Z,27.20
2022-08-13T09:22:54.373Z,27.10
2022-08-13T09:25:27.950Z,27.30
2022-08-13T09:28:01.725Z,27.40
2022-08-13T09:30:33.963Z,27.50
2022-08-13T09:33:05.305Z,27.50
2022-08-13T09:35:35.459Z,27.60
2022-08-13T09:38:12.594Z,27.40
2022-08-13T09:40:52.227Z,27.50
2022-08-13T09:43:44.245Z,27.60
2022-08-13T09:46:20.926Z,27.80
2022-08-13T09:48:54.060Z,27.80
2022-08-13T09:51:55.775Z,27.90
2022-08-13T09:54:12.434Z,28.10
2022-08-13T09:56:41.455Z,28.20
2022-08-13T09:59:15.584Z,28.10
2022-08-13T10:02:00.513Z,28.00
2022-08-13T10:04:31.044Z,28.10
2022-08-13T10:07:04.397Z,28.20
2022-08-13T10:10:22.119Z,28.20
2022-08-13T10:12:34.022Z,28.00
2022-08-13T10:15:02.145Z,28.10
2022-08-13T10:17:48.590Z,28.20
2022-08-13T10:20:20.302Z,28.20
2022-08-13T10:22:49.990Z,28.40
2022-08-13T10:25:22.543Z,28.50
2022-08-13T10:27:57.874Z,28.60
2022-08-13T10:30:57.598Z,28.60
2022-08-13T10:33:18.213Z,28.70
2022-08-13T10:35:47.469Z,28.70
2022-08-13T10:38:29.942Z,28.80
2022-08-13T10:40:59.229Z,28.80
2022-08-13T10:43:27.718Z,28.80
2022-08-13T10:46:27.279Z,28.80
2022-08-13T10:48:59.614Z,28.90
2022-08-13T10:51:30.200Z,29.00
2022-08-13T10:54:01.932Z,29.00
2022-08-13T10:56:31.808Z,29.00
2022-08-13T10:59:01.869Z,29.10
2022-08-13T11:01:31.805Z,29.20
2022-08-13T11:04:06.706Z,29.20
2022-08-13T11:06:36.664Z,29.20
2022-08-13T11:09:21.662Z,29.20
2022-08-13T11:11:55.031Z,29.20
2022-08-13T11:14:27.028Z,29.30
2022-08-13T11:17:02.676Z,29.30
2022-08-13T11:19:48.910Z,29.30
2022-08-13T11:22:26.699Z,29.40
2022-08-13T11:24:57.145Z,29.60
2022-08-13T11:27:46.720Z,29.60
2022-08-13T11:30:20.083Z,29.70
2022-08-13T16:15:38.015Z,29.90
2022-08-13T16:18:35.044Z,30.00
2022-08-13T16:21:03.618Z,30.00
2022-08-13T16:23:32.699Z,30.00
2022-08-13T16:26:26.221Z,30.10
2022-08-13T16:29:00.693Z,30.20
2022-08-13T16:31:38.883Z,30.00
2022-08-13T16:34:20.616Z,30.00
2022-08-13T16:36:53.132Z,29.90
2022-08-13T16:39:26.404Z,30.00
2022-08-13T16:41:56.466Z,30.00
2022-08-13T16:44:37.598Z,30.00
2022-08-13T16:47:09.379Z,30.00
2022-08-13T16:49:40.950Z,29.90
2022-08-13T16:52:17.139Z,29.90
2022-08-13T16:54:53.023Z,29.90
2022-08-13T16:57:23.639Z,29.90
2022-08-13T16:59:53.775Z,29.90
2022-08-13T17:02:54.991Z,29.80
2022-08-13T17:05:52.866Z,29.80
2022-08-13T17:08:52.739Z,29.80
2022-08-13T17:11:27.469Z,29.80
2022-08-13T17:13:56.988Z,29.70
2022-08-13T17:16:28.388Z,29.70
2022-08-13T17:19:02.640Z,29.60
2022-08-13T17:21:52.604Z,29.60
2022-08-13T17:24:26.115Z,29.60
2022-08-13T17:26:57.188Z,29.60
2022-08-13T17:30:01.766Z,29.50
2022-08-13T17:32:15.759Z,29.50
2022-08-13T17:34:45.756Z,29.50
2022-08-13T17:37:20.567Z,29.40
2022-08-13T17:39:56.105Z,29.40
2022-08-13T17:44:01.763Z,29.30
2022-08-13T17:45:29.681Z,29.20
2022-08-13T17:48:02.590Z,29.20
2022-08-13T17:50:42.650Z,29.10
2022-08-13T17:53:16.284Z,29.10
2022-08-13T17:55:52.283Z,29.10
2022-08-13T17:58:34.024Z,29.00
2022-08-13T18:01:19.884Z,29.00
2022-08-13T18:03:52.646Z,28.90
2022-08-13T18:06:27.209Z,28.90
2022-08-13T18:09:02.869Z,28.80
2022-08-13T18:11:37.795Z,28.70
2022-08-13T18:14:13.744Z,28.70
2022-08-13T18:17:03.321Z,28.60
2022-08-13T18:19:37.301Z,28.60
2022-08-13T18:22:07.536Z,28.50
2022-08-13T18:24:35.907Z,28.50
2022-08-13T18:27:04.843Z,28.40
2022-08-13T18:29:59.569Z,28.30
2022-08-13T18:32:27.549Z,28.20
2022-08-13T18:35:00.641Z,28.10
2022-08-13T18:37:37.971Z,28.00
2022-08-13T18:40:11.766Z,28.00
2022-08-13T18:42:41.404Z,27.80
2022-08-13T18:45:24.923Z,27.70
2022-08-13T18:48:00.420Z,27.60
2022-08-13T18:50:37.578Z,27.40
2022-08-13T18:53:32.902Z,27.20
2022-08-13T18:56:13.809Z,27.10
2022-08-13T18:58:43.214Z,27.00
2022-08-13T19:01:14.410Z,26.90
2022-08-13T19:04:01.190Z,26.70
2022-08-13T19:06:33.450Z,26.60
2022-08-13T19:09:07.515Z,26.50
2022-08-13T19:11:44.578Z,26.40
2022-08-13T19:14:14.095Z,26.40
2022-08-13T19:16:42.338Z,26.20
2022-08-13T19:19:55.306Z,26.10
2022-08-13T19:22:32.065Z,25.90
2022-08-13T19:25:31.223Z,25.80
2022-08-13T19:28:55.690Z,25.70
2022-08-13T19:31:24.690Z,25.60
2022-08-13T19:34:29.716Z,25.50
2022-08-13T19:37:17.789Z,25.40
2022-08-13T19:40:34.847Z,25.30
2022-08-13T19:43:18.014Z,25.20
2022-08-13T19:46:03.606Z,25.10
2022-08-13T19:48:47.528Z,25.00
2022-08-13T19:51:29.032Z,24.90
2022-08-13T19:54:14.016Z,24.80
2022-08-13T19:56:54.469Z,24.70
2022-08-13T19:59:34.727Z,24.60
2022-08-13T20:02:14.577Z,24.50
2022-08-13T20:04:51.594Z,24.40
2022-08-13T20:07:32.221Z,24.40
2022-08-13T20:10:00.609Z,24.30
2022-08-13T20:12:29.295Z,24.20
2022-08-13T20:15:02.836Z,24.20
2022-08-13T20:17:56.432Z,24.20
2022-08-13T20:20:28.759Z,24.10
2022-08-13T20:22:58.238Z,24.00
2022-08-13T20:25:48.803Z,23.90
2022-08-13T20:28:17.961Z,23.80
2022-08-13T20:31:01.485Z,23.80
2022-08-13T20:33:35.696Z,23.80
2022-08-13T20:36:07.372Z,23.80
2022-08-13T20:38:36.968Z,23.70
2022-08-13T20:41:06.488Z,23.60
2022-08-13T20:43:49.507Z,23.60
2022-08-13T20:46:27.920Z,23.50
2022-08-13T20:48:57.028Z,23.50
2022-08-13T20:51:27.220Z,23.50
2022-08-13T20:53:56.956Z,23.40
2022-08-13T20:56:41.702Z,23.30
2022-08-13T21:00:46.889Z,23.30
2022-08-13T21:02:03.771Z,23.10
2022-08-13T21:04:31.908Z,23.10
2022-08-13T21:07:02.546Z,23.10
2022-08-13T21:09:46.374Z,23.10
2022-08-13T21:12:20.405Z,23.10
2022-08-13T21:14:48.686Z,23.10
2022-08-13T21:17:20.591Z,23.10
2022-08-13T21:19:58.431Z,22.90
2022-08-13T21:22:29.908Z,22.90
2022-08-13T21:25:00.509Z,22.80
2022-08-13T21:28:37.655Z,22.70
2022-08-13T21:30:17.761Z,22.60
2022-08-13T21:32:56.561Z,22.50
2022-08-13T21:35:27.495Z,22.60
2022-08-13T21:37:56.823Z,22.50
2022-08-13T21:40:25.441Z,22.50
2022-08-13T21:42:58.850Z,22.50
2022-08-13T21:45:28.023Z,22.40
2022-08-13T21:47:58.525Z,22.30
2022-08-13T21:50:32.485Z,22.30
2022-08-13T21:53:05.203Z,22.20
2022-08-13T21:55:51.150Z,22.20
2022-08-13T21:58:19.674Z,22.00
2022-08-13T22:00:48.801Z,21.90
2022-08-13T22:04:00.063Z,21.80
2022-08-13T22:06:16.514Z,21.70
2022-08-13T22:08:46.435Z,21.60
2022-08-13T22:11:15.660Z,21.60
2022-08-13T22:13:44.497Z,21.60
2022-08-13T22:16:13.064Z,21.60
2022-08-13T22:18:48.135Z,21.60
2022-08-13T22:21:16.896Z,21.50
2022-08-13T22:23:46.374Z,21.50
2022-08-13T22:26:15.734Z,21.50
2022-08-13T22:29:02.266Z,21.50
